Time;durP1;ratioP1;P1;durP2;ratioP2;P2;SDS_P1;SDS_P2;PMS_P1;PMS_P2;Temp;Humidity;BMP_temperature;BMP_pressure;BME280_temperature;BME280_humidity;BME280_pressure;Samples;Min_cycle;Max_cycle;Signal;HPM_P1;HPM_P2
2022/07/19 00:00:17;;;;;;;2.60;1.52;;;14.80;99.90;;;;;;6095564;23;20036;-88
2022/07/19 00:02:49;;;;;;;2.60;2.38;;;14.70;99.90;;;;;;6096249;23;20473;-88
2022/07/19 00:05:18;;;;;;;3.00;2.67;;;14.70;99.90;;;;;;6130889;23;20025;-89
2022/07/19 00:07:46;;;;;;;2.88;2.00;;;14.70;99.90;;;;;;6119961;23;20823;-88
2022/07/19 00:10:16;;;;;;;2.20;2.00;;;14.60;99.90;;;;;;6094849;23;20026;-88
2022/07/19 00:12:43;;;;;;;9.00;2.10;;;14.50;99.90;;;;;;6106415;23;20017;-89
2022/07/19 00:15:14;;;;;;;2.50;2.33;;;14.50;99.90;;;;;;6125704;23;20484;-89
2022/07/19 00:17:44;;;;;;;4.67;2.43;;;14.40;99.90;;;;;;6096695;23;20021;-88
2022/07/19 00:20:15;;;;;;;3.55;2.38;;;14.30;99.90;;;;;;6095965;23;20254;-88
2022/07/19 00:22:42;;;;;;;2.13;1.73;;;14.30;99.90;;;;;;6120402;23;20036;-88
2022/07/19 00:25:11;;;;;;;1.85;1.75;;;14.20;99.90;;;;;;6095953;23;20021;-89
2022/07/19 00:27:40;;;;;;;2.13;1.90;;;14.20;99.90;;;;;;6114858;23;20026;-88
2022/07/19 00:30:09;;;;;;;2.30;2.20;;;14.20;99.90;;;;;;6117616;23;20018;-88
2022/07/19 00:32:37;;;;;;;2.95;2.75;;;14.30;99.90;;;;;;6106430;23;20433;-89
2022/07/19 00:35:06;;;;;;;2.47;2.28;;;14.40;99.90;;;;;;6095512;23;20045;-89
2022/07/19 00:37:34;;;;;;;2.28;2.08;;;14.40;99.90;;;;;;6115972;23;20029;-88
2022/07/19 00:40:03;;;;;;;2.47;2.28;;;14.40;99.90;;;;;;6116013;23;20049;-88
2022/07/19 00:42:31;;;;;;;2.38;2.17;;;14.40;99.90;;;;;;6120277;23;20052;-89
2022/07/19 00:44:58;;;;;;;4.60;2.30;;;14.30;99.90;;;;;;6121112;23;20025;-89
2022/07/19 00:47:26;;;;;;;22.38;3.47;;;14.20;99.90;;;;;;6100126;23;20026;-88
2022/07/19 00:49:55;;;;;;;3.92;2.65;;;14.20;99.90;;;;;;6130695;23;20009;-88
2022/07/19 00:52:25;;;;;;;3.30;2.15;;;14.20;99.90;;;;;;6120117;23;20030;-88
2022/07/19 00:54:53;;;;;;;3.05;2.75;;;14.20;99.90;;;;;;6095350;23;20029;-88
2022/07/19 00:57:24;;;;;;;2.88;2.10;;;14.20;99.90;;;;;;6091793;23;20030;-89
2022/07/19 01:00:30;;;;;;;2.30;2.10;;;14.30;99.90;;;;;;6090487;23;20740;-89
2022/07/19 01:02:59;;;;;;;2.42;2.22;;;14.20;99.90;;;;;;6126298;23;20026;-88
2022/07/19 01:05:26;;;;;;;2.15;1.95;;;14.30;99.90;;;;;;6072754;23;20025;-88
2022/07/19 01:07:54;;;;;;;2.28;2.08;;;14.30;99.90;;;;;;6119943;23;20036;-89
2022/07/19 01:10:22;;;;;;;17.35;4.35;;;14.40;99.90;;;;;;6104035;23;20014;-89
2022/07/19 01:12:50;;;;;;;3.47;2.15;;;14.40;99.90;;;;;;6096388;23;20045;-88
2022/07/19 01:15:24;;;;;;;4.78;2.83;;;14.20;99.90;;;;;;6119868;23;20030;-88
2022/07/19 01:17:52;;;;;;;1.98;1.67;;;14.10;99.90;;;;;;6115827;23;20029;-89
2022/07/19 01:20:22;;;;;;;2.20;2.10;;;14.00;99.90;;;;;;6108069;23;20040;-89
2022/07/19 01:22:56;;;;;;;3.53;3.22;;;14.00;99.90;;;;;;6093929;23;20360;-88
2022/07/19 01:25:26;;;;;;;5.60;2.85;;;13.90;99.90;;;;;;6095856;23;20018;-88
2022/07/19 01:28:02;;;;;;;3.50;2.92;;;13.90;99.90;;;;;;6114997;23;20026;-89
2022/07/19 01:30:30;;;;;;;2.83;1.92;;;13.90;99.90;;;;;;6095304;23;20022;-88
2022/07/19 01:32:58;;;;;;;2.67;2.30;;;14.00;99.90;;;;;;6096168;23;20346;-88
2022/07/19 01:35:26;;;;;;;5.28;2.50;;;14.00;99.90;;;;;;6071675;23;20034;-89
2022/07/19 01:37:54;;;;;;;2.58;1.88;;;14.00;99.90;;;;;;6120443;23;20022;-88
2022/07/19 01:40:24;;;;;;;8.65;2.47;;;14.10;99.90;;;;;;6114654;23;20034;-89
2022/07/19 01:42:51;;;;;;;2.22;2.13;;;14.10;99.90;;;;;;6115141;23;20022;-88
2022/07/19 01:45:20;;;;;;;3.45;2.97;;;14.00;99.90;;;;;;6115834;23;20463;-88
2022/07/19 01:47:48;;;;;;;9.43;2.80;;;14.00;99.90;;;;;;6118609;23;20026;-89
2022/07/19 01:50:17;;;;;;;2.35;2.05;;;14.00;99.90;;;;;;6128062;23;20030;-89
2022/07/19 01:52:46;;;;;;;3.33;3.08;;;14.00;99.90;;;;;;6096239;23;20571;-88
2022/07/19 01:55:18;;;;;;;3.20;2.10;;;13.90;99.90;;;;;;6095224;23;20057;-88
2022/07/19 01:57:54;;;;;;;4.47;3.17;;;13.70;99.90;;;;;;6130115;23;20018;-88
2022/07/19 02:00:22;;;;;;;3.45;2.75;;;13.60;99.90;;;;;;6089974;23;20027;-88
2022/07/19 02:02:50;;;;;;;3.08;2.78;;;13.60;99.90;;;;;;6114922;23;20041;-88
2022/07/19 02:05:17;;;;;;;21.63;3.72;;;13.60;99.90;;;;;;6116614;23;20018;-88
2022/07/19 02:07:47;;;;;;;2.60;2.17;;;13.70;99.90;;;;;;6119567;23;20488;-88
2022/07/19 02:10:16;;;;;;;3.88;2.65;;;13.70;99.90;;;;;;6119829;23;20071;-88
2022/07/19 02:12:43;;;;;;;3.58;2.28;;;13.80;99.90;;;;;;6097909;23;20022;-88
2022/07/19 02:15:11;;;;;;;7.05;2.40;;;13.80;99.90;;;;;;6102459;23;20022;-88
2022/07/19 02:17:39;;;;;;;4.50;3.22;;;13.90;99.90;;;;;;6098076;23;20315;-88
2022/07/19 02:20:07;;;;;;;2.80;1.90;;;13.80;99.90;;;;;;6094259;23;20065;-89
2022/07/19 02:22:35;;;;;;;4.82;2.25;;;13.80;99.90;;;;;;6130784;23;20022;-88
2022/07/19 02:25:03;;;;;;;14.82;4.00;;;13.70;99.90;;;;;;6117659;23;20023;-91
2022/07/19 02:27:37;;;;;;;1.90;1.80;;;13.70;99.90;;;;;;6124867;23;20030;-88
2022/07/19 02:30:06;;;;;;;2.58;2.38;;;13.70;99.90;;;;;;6127895;23;20021;-89
2022/07/19 02:32:34;;;;;;;1.90;1.58;;;13.50;99.90;;;;;;6097153;23;20398;-88
2022/07/19 02:35:02;;;;;;;7.68;2.88;;;13.30;99.90;;;;;;6095930;23;20022;-88
2022/07/19 02:37:29;;;;;;;2.40;2.22;;;13.20;99.90;;;;;;6096835;23;20018;-88
2022/07/19 02:39:57;;;;;;;3.10;2.78;;;13.20;99.90;;;;;;6071639;23;20344;-89
2022/07/19 02:42:25;;;;;;;2.28;2.15;;;13.30;99.90;;;;;;6104653;23;20022;-88
2022/07/19 02:44:53;;;;;;;4.55;2.42;;;13.40;99.90;;;;;;6121680;23;20346;-89
2022/07/19 02:47:20;;;;;;;3.00;2.35;;;13.40;99.90;;;;;;6101176;23;20040;-88
2022/07/19 02:49:48;;;;;;;3.17;2.65;;;13.40;99.90;;;;;;6096296;23;20087;-89
2022/07/19 02:52:16;;;;;;;3.28;2.88;;;13.50;99.90;;;;;;6096725;23;20030;-88
2022/07/19 02:54:44;;;;;;;2.70;1.83;;;13.50;99.90;;;;;;6119665;23;20036;-88
2022/07/19 02:57:11;;;;;;;3.38;2.75;;;13.50;99.90;;;;;;6130505;23;20021;-88
2022/07/19 02:59:39;;;;;;;6.50;2.67;;;13.40;99.90;;;;;;6096022;23;20029;-88
2022/07/19 03:02:07;;;;;;;3.72;3.15;;;13.30;99.90;;;;;;6120128;23;20042;-88
2022/07/19 03:04:34;;;;;;;2.72;2.53;;;13.30;99.90;;;;;;6072181;23;20033;-88
2022/07/19 03:07:02;;;;;;;10.95;2.45;;;13.30;99.90;;;;;;6122271;23;20478;-87
2022/07/19 03:09:30;;;;;;;3.00;2.78;;;13.40;99.90;;;;;;6120051;23;20584;-89
2022/07/19 03:11:58;;;;;;;3.45;2.80;;;13.40;99.90;;;;;;6094994;23;20041;-88
2022/07/19 03:14:27;;;;;;;3.05;2.20;;;13.40;99.90;;;;;;6104095;23;20056;-88
2022/07/19 03:16:55;;;;;;;2.55;2.10;;;13.40;99.90;;;;;;6120266;23;20358;-89
2022/07/19 03:19:26;;;;;;;2.25;2.13;;;13.40;99.90;;;;;;6094926;23;20362;-89
2022/07/19 03:21:54;;;;;;;3.60;3.35;;;13.40;99.90;;;;;;6130915;23;20014;-88
2022/07/19 03:24:22;;;;;;;10.20;5.03;;;13.40;99.90;;;;;;6119778;23;20541;-89
2022/07/19 03:26:50;;;;;;;5.32;2.75;;;13.40;99.90;;;;;;6070884;23;20555;-89
2022/07/19 03:29:17;;;;;;;5.38;2.42;;;13.50;99.90;;;;;;6105623;23;20014;-91
2022/07/19 03:31:45;;;;;;;2.75;2.38;;;13.40;99.90;;;;;;6095049;23;20026;-89
2022/07/19 03:34:13;;;;;;;2.45;2.15;;;13.20;99.90;;;;;;6095652;23;20018;-89
2022/07/19 03:36:41;;;;;;;2.42;2.22;;;13.00;99.90;;;;;;6120266;23;20473;-87
2022/07/19 03:39:08;;;;;;;2.88;2.45;;;12.90;99.90;;;;;;6071494;23;20028;-88
2022/07/19 03:41:36;;;;;;;3.88;2.42;;;12.80;99.90;;;;;;6105356;23;20014;-88
2022/07/19 03:44:04;;;;;;;4.57;2.60;;;12.80;99.90;;;;;;6095627;23;20022;-88
2022/07/19 03:46:32;;;;;;;2.08;1.90;;;13.00;99.90;;;;;;6114750;23;20454;-88
2022/07/19 03:48:59;;;;;;;3.17;2.85;;;13.10;99.90;;;;;;6092114;23;20037;-88
2022/07/19 03:51:27;;;;;;;2.33;2.13;;;13.20;99.90;;;;;;6124075;23;20022;-89
2022/07/19 03:53:55;;;;;;;2.72;2.50;;;13.20;99.90;;;;;;6088769;23;20779;-88
2022/07/19 03:56:23;;;;;;;3.03;2.83;;;13.30;99.90;;;;;;6117475;23;20025;-89
2022/07/19 03:58:54;;;;;;;3.10;2.33;;;13.40;99.90;;;;;;6119263;23;20028;-88
2022/07/19 04:01:22;;;;;;;2.80;2.60;;;13.20;99.90;;;;;;6071810;23;20029;-88
2022/07/19 04:03:50;;;;;;;4.47;2.78;;;13.10;99.90;;;;;;6090447;23;20026;-88
2022/07/19 04:06:18;;;;;;;2.40;2.20;;;13.00;99.90;;;;;;6090217;23;20022;-88
2022/07/19 04:08:46;;;;;;;3.00;2.80;;;13.00;99.90;;;;;;6113325;23;20022;-89
2022/07/19 04:11:14;;;;;;;3.00;2.80;;;13.00;99.90;;;;;;6070654;23;20033;-89
2022/07/19 04:13:41;;;;;;;2.53;2.33;;;13.20;99.90;;;;;;6090274;23;20018;-89
2022/07/19 04:16:09;;;;;;;3.97;2.63;;;13.30;99.90;;;;;;6117736;23;20026;-89
2022/07/19 04:18:38;;;;;;;1.90;1.80;;;13.40;99.90;;;;;;6102493;23;20022;-89
2022/07/19 04:21:06;;;;;;;4.68;2.35;;;13.30;99.90;;;;;;6120152;23;20022;-88
2022/07/19 04:23:34;;;;;;;2.38;2.17;;;13.20;99.90;;;;;;6123061;23;20033;-89
2022/07/19 04:26:02;;;;;;;5.15;3.13;;;13.20;99.90;;;;;;6119334;23;20025;-89
2022/07/19 04:28:35;;;;;;;4.88;2.80;;;13.10;99.90;;;;;;6116666;23;20034;-88
2022/07/19 04:31:03;;;;;;;4.88;3.03;;;13.10;99.90;;;;;;6118977;23;20656;-89
2022/07/19 04:33:30;;;;;;;10.25;2.75;;;13.10;99.90;;;;;;6090832;23;20022;-89
2022/07/19 04:35:58;;;;;;;4.90;3.15;;;13.20;99.90;;;;;;6091247;23;20033;-89
2022/07/19 04:38:26;;;;;;;2.95;2.42;;;13.30;99.90;;;;;;6127458;23;20029;-89
2022/07/19 04:40:54;;;;;;;4.00;2.95;;;13.40;99.90;;;;;;6119438;23;20024;-89
2022/07/19 04:43:26;;;;;;;2.67;2.47;;;13.50;99.90;;;;;;6114073;23;20033;-89
2022/07/19 04:45:56;;;;;;;2.90;2.50;;;13.60;99.90;;;;;;6091178;23;20026;-89
2022/07/19 04:48:24;;;;;;;2.47;2.28;;;13.60;99.90;;;;;;6094046;23;20026;-89
2022/07/19 04:50:52;;;;;;;4.03;2.97;;;13.80;99.90;;;;;;6070684;23;20331;-89
2022/07/19 04:53:20;;;;;;;2.35;2.20;;;13.80;99.90;;;;;;6094091;23;20026;-87
2022/07/19 04:55:48;;;;;;;3.10;2.55;;;13.80;99.90;;;;;;6121313;23;20218;-81
2022/07/19 04:58:22;;;;;;;2.78;2.58;;;13.90;99.90;;;;;;6128508;23;20502;-84
2022/07/19 05:00:50;;;;;;;2.30;2.10;;;14.10;99.90;;;;;;6129821;23;20014;-82
2022/07/19 05:03:18;;;;;;;2.97;2.47;;;14.20;99.90;;;;;;6124917;23;20466;-82
2022/07/19 05:06:09;;;;;;;2.92;2.72;;;14.40;99.90;;;;;;6130320;23;20590;-86
2022/07/19 05:08:53;;;;;;;4.30;3.90;;;14.60;99.90;;;;;;6087077;23;20045;-84
2022/07/19 05:11:21;;;;;;;5.72;2.92;;;14.70;99.90;;;;;;6088134;23;20033;-86
2022/07/19 05:13:49;;;;;;;2.72;2.53;;;14.70;99.90;;;;;;6115275;23;20033;-89
2022/07/19 05:16:23;;;;;;;2.42;2.33;;;14.80;99.90;;;;;;6071265;23;20026;-87
2022/07/19 05:19:04;;;;;;;4.00;2.97;;;14.90;99.90;;;;;;6092478;23;20029;-86
2022/07/19 05:22:08;;;;;;;6.13;2.72;;;15.00;99.90;;;;;;6118145;23;20034;-88
2022/07/19 05:25:06;;;;;;;7.45;3.97;;;15.00;99.90;;;;;;6077518;23;20025;-87
2022/07/19 05:27:54;;;;;;;3.42;3.17;;;15.10;99.90;;;;;;6104345;23;20106;-85
2022/07/19 05:30:22;;;;;;;3.78;3.47;;;15.40;99.90;;;;;;6127840;23;20013;-85
2022/07/19 05:33:01;;;;;;;3.53;2.65;;;15.50;99.90;;;;;;6123655;23;20019;-85
2022/07/19 05:35:57;;;;;;;3.38;3.08;;;15.70;99.90;;;;;;6087200;23;20027;-86
2022/07/19 05:38:34;;;;;;;2.88;2.67;;;15.90;99.90;;;;;;6117048;23;20026;-84
2022/07/19 05:41:02;;;;;;;4.35;2.70;;;16.00;99.90;;;;;;6130379;23;20021;-85
2022/07/19 05:43:30;;;;;;;3.15;2.92;;;16.10;99.90;;;;;;6094596;23;20429;-86
2022/07/19 05:45:57;;;;;;;7.15;3.38;;;16.20;99.90;;;;;;6129653;23;20018;-85
2022/07/19 05:48:25;;;;;;;5.53;4.85;;;16.30;99.90;;;;;;6095424;23;20022;-86
2022/07/19 05:50:53;;;;;;;8.65;5.18;;;16.30;99.90;;;;;;6090103;23;20029;-86
2022/07/19 05:53:21;;;;;;;2.65;2.45;;;16.50;99.90;;;;;;6124993;23;20034;-86
2022/07/19 05:55:49;;;;;;;4.18;3.88;;;16.60;99.90;;;;;;6112759;23;20026;-87
2022/07/19 05:58:25;;;;;;;9.10;5.35;;;16.70;99.90;;;;;;6066174;23;20459;-88
2022/07/19 06:01:17;;;;;;;4.07;3.53;;;16.80;99.90;;;;;;6116350;23;20022;-88
2022/07/19 06:03:47;;;;;;;3.38;3.08;;;17.00;99.90;;;;;;6118075;23;20464;-89
2022/07/19 06:06:22;;;;;;;3.10;2.90;;;17.20;99.90;;;;;;6116831;23;20026;-88
2022/07/19 06:08:50;;;;;;;3.28;2.80;;;17.60;99.90;;;;;;6118178;23;20033;-88
2022/07/19 06:11:18;;;;;;;3.20;2.90;;;17.70;99.90;;;;;;6064465;23;20030;-88
2022/07/19 06:13:47;;;;;;;3.78;3.45;;;17.70;99.90;;;;;;6113981;23;20019;-88
2022/07/19 06:16:15;;;;;;;4.10;2.67;;;17.80;99.90;;;;;;6093115;23;20040;-89
2022/07/19 06:18:44;;;;;;;3.92;3.65;;;17.90;99.90;;;;;;6117608;23;20037;-88
2022/07/19 06:21:15;;;;;;;4.45;3.03;;;18.00;99.90;;;;;;6104243;23;20408;-89
2022/07/19 06:23:43;;;;;;;4.95;3.08;;;18.00;99.90;;;;;;6118175;23;20037;-88
2022/07/19 06:26:12;;;;;;;3.03;2.83;;;18.10;99.90;;;;;;6102607;23;20014;-90
2022/07/19 06:28:40;;;;;;;5.95;4.05;;;18.10;99.90;;;;;;6069873;23;20022;-90
2022/07/19 06:31:14;;;;;;;5.60;3.40;;;18.30;99.90;;;;;;6118271;23;20026;-89
2022/07/19 06:33:47;;;;;;;3.60;3.30;;;18.40;99.90;;;;;;6094739;23;20045;-89
2022/07/19 06:36:16;;;;;;;3.53;3.20;;;18.60;99.90;;;;;;6117732;23;20033;-88
2022/07/19 06:38:44;;;;;;;3.75;3.45;;;18.90;99.90;;;;;;6124518;23;20804;-89
2022/07/19 06:41:12;;;;;;;3.55;3.00;;;19.00;99.90;;;;;;6116749;23;20018;-89
2022/07/19 06:43:40;;;;;;;3.50;3.28;;;19.10;99.90;;;;;;6112732;23;20026;-88
2022/07/19 06:46:08;;;;;;;3.20;2.90;;;19.20;99.90;;;;;;6115841;23;20810;-89
2022/07/19 06:48:36;;;;;;;6.85;5.13;;;19.40;99.90;;;;;;6093619;23;20018;-90
2022/07/19 06:51:07;;;;;;;3.22;3.03;;;19.60;99.90;;;;;;6094251;23;20034;-85
2022/07/19 06:53:36;;;;;;;6.20;3.58;;;19.70;99.90;;;;;;6132310;23;20029;-85
2022/07/19 06:56:04;;;;;;;3.85;3.53;;;19.80;99.90;;;;;;6094719;23;20040;-90
2022/07/19 06:58:39;;;;;;;3.72;3.03;;;19.90;99.90;;;;;;6119250;23;20028;-89
2022/07/19 07:01:09;;;;;;;4.03;2.95;;;20.00;99.90;;;;;;6120710;23;20482;-89
2022/07/19 07:03:38;;;;;;;6.97;3.08;;;20.20;99.90;;;;;;6114457;23;20034;-89
2022/07/19 07:06:06;;;;;;;2.90;2.70;;;20.30;99.90;;;;;;6116357;23;20026;-88
2022/07/19 07:08:34;;;;;;;6.40;2.67;;;20.50;99.90;;;;;;6095211;23;20025;-88
2022/07/19 07:11:02;;;;;;;2.53;2.33;;;20.80;99.90;;;;;;6121635;23;20030;-89
2022/07/19 07:13:30;;;;;;;3.15;2.88;;;21.10;99.90;;;;;;6119847;23;20018;-88
2022/07/19 07:15:58;;;;;;;2.83;2.63;;;21.10;99.90;;;;;;6119343;23;20354;-89
2022/07/19 07:18:26;;;;;;;5.20;2.75;;;21.30;99.90;;;;;;6118476;23;20033;-89
2022/07/19 07:20:54;;;;;;;2.90;2.70;;;21.40;99.90;;;;;;6071002;23;20022;-89
2022/07/19 07:23:23;;;;;;;4.53;2.75;;;21.50;99.90;;;;;;6112237;23;20026;-88
2022/07/19 07:25:53;;;;;;;3.55;2.92;;;21.70;99.90;;;;;;6066059;23;20022;-90
2022/07/19 07:28:28;;;;;;;3.03;2.72;;;22.00;99.90;;;;;;6120358;23;20378;-88
2022/07/19 07:41:47;;;;;;;5.78;3.00;;;22.20;99.90;;;;;;6168568;23;20013;-79
2022/07/19 07:45:00;;;;;;;2.72;2.53;;;22.40;99.90;;;;;;6184133;23;20021;-91
2022/07/19 07:48:45;;;;;;;6.65;3.28;;;22.60;99.90;;;;;;5978878;23;20030;-88
2022/07/19 07:51:37;;;;;;;3.15;2.75;;;23.00;99.90;;;;;;6092886;23;20726;-86
2022/07/19 07:54:26;;;;;;;3.70;2.83;;;23.00;99.90;;;;;;6130681;23;20024;-88
2022/07/19 07:58:14;;;;;;;2.72;2.50;;;23.10;99.90;;;;;;6138812;23;20017;-87
2022/07/19 08:17:21;;;;;;;;;;;;;;;;;;;;;
2022/07/19 08:29:37;;;;;;;3.30;2.38;;;24.30;99.90;;;;;;6146597;23;20033;-83
2022/07/19 08:32:06;;;;;;;12.35;3.90;;;24.40;99.90;;;;;;6129705;23;20021;-84
2022/07/19 08:35:10;;;;;;;3.13;2.80;;;24.30;99.90;;;;;;6147547;23;20020;-82
2022/07/19 08:43:22;;;;;;;7.10;3.88;;;24.30;99.90;;;;;;6081093;23;20025;-84
2022/07/19 08:47:57;;;;;;;3.08;2.53;;;24.40;99.90;;;;;;5954824;23;20065;-85
2022/07/19 08:57:57;;;;;;;2.40;2.20;;;24.60;99.90;;;;;;5998420;23;20015;-84
2022/07/19 09:05:24;;;;;;;1.90;1.80;;;25.00;99.90;;;;;;5859090;24;20525;-87
2022/07/19 09:23:27;;;;;;;2.72;2.53;;;25.30;99.50;;;;;;6061253;23;20030;-86
2022/07/19 09:27:10;;;;;;;2.42;2.22;;;25.50;99.00;;;;;;6024568;23;20034;-87
2022/07/19 09:30:42;;;;;;;8.35;2.58;;;25.60;99.00;;;;;;6012394;23;20447;-85
2022/07/19 09:33:34;;;;;;;1.90;1.80;;;25.70;98.60;;;;;;6085716;23;20046;-84
2022/07/19 09:36:11;;;;;;;2.70;2.38;;;25.80;98.30;;;;;;6039236;23;20038;-86
2022/07/19 09:39:19;;;;;;;2.83;2.03;;;25.80;98.90;;;;;;6018682;23;20037;-85
2022/07/19 09:42:03;;;;;;;2.55;2.00;;;25.90;98.10;;;;;;6010637;23;20029;-83
2022/07/19 09:44:43;;;;;;;;;;;;;;;;;;;;;
2022/07/19 09:47:50;;;;;;;4.10;1.88;;;26.20;98.30;;;;;;6049045;23;20334;-85
2022/07/19 09:54:11;;;;;;;2.45;2.25;;;26.10;97.50;;;;;;6059586;23;20055;-84
2022/07/19 09:56:50;;;;;;;3.25;2.03;;;26.20;97.20;;;;;;6008315;23;20042;-87
2022/07/19 09:59:58;;;;;;;2.28;2.10;;;26.20;97.60;;;;;;6023664;23;20344;-84
2022/07/19 10:02:48;;;;;;;2.05;1.85;;;26.30;97.60;;;;;;6018765;23;20031;-85
2022/07/19 10:05:23;;;;;;;1.80;1.70;;;26.40;96.80;;;;;;6007299;23;20031;-84
2022/07/19 10:08:37;;;;;;;2.47;2.28;;;26.50;95.10;;;;;;5901356;24;20029;-87
2022/07/19 10:14:42;;;;;;;9.93;1.92;;;26.60;93.80;;;;;;5964607;23;20028;-81
2022/07/19 10:17:32;;;;;;;1.77;1.67;;;26.60;93.20;;;;;;5957317;23;20177;-83
2022/07/19 10:20:01;;;;;;;;;;;26.60;93.10;;;;;;5979560;23;20468;-81
2022/07/19 10:22:30;;;;;;;3.13;2.53;;;26.70;93.40;;;;;;5983671;23;19922;-81
2022/07/19 10:25:04;;;;;;;1.30;1.20;;;26.70;93.50;;;;;;5979065;23;20020;-82
2022/07/19 10:27:43;;;;;;;2.08;1.63;;;26.80;92.30;;;;;;5980913;23;20028;-82
2022/07/19 10:30:12;;;;;;;1.92;1.83;;;27.00;93.50;;;;;;5979613;23;20047;-81
2022/07/19 10:32:44;;;;;;;2.05;1.35;;;27.10;92.60;;;;;;5977437;23;20019;-82
2022/07/19 10:35:28;;;;;;;3.92;2.42;;;27.30;91.80;;;;;;5979576;23;20023;-79
2022/07/19 10:38:02;;;;;;;2.13;1.83;;;27.40;92.50;;;;;;5979419;23;20026;-81
2022/07/19 10:40:44;;;;;;;1.67;1.58;;;27.40;93.20;;;;;;6046716;23;20030;-79
2022/07/19 10:43:16;;;;;;;2.03;1.92;;;27.40;92.90;;;;;;6040095;23;20027;-80
2022/07/19 10:45:56;;;;;;;2.42;2.30;;;27.40;93.60;;;;;;6074886;23;20015;-80
2022/07/19 10:48:48;;;;;;;4.15;1.73;;;27.50;95.10;;;;;;6038658;23;20026;-81
2022/07/19 10:51:30;;;;;;;4.88;1.63;;;27.60;93.90;;;;;;6052107;23;20026;-78
2022/07/19 10:54:03;;;;;;;10.63;2.05;;;27.70;91.30;;;;;;6073853;23;20026;-80
2022/07/19 10:56:34;;;;;;;3.15;1.70;;;27.70;90.20;;;;;;6060563;23;20074;-83
2022/07/19 10:59:12;;;;;;;;;;;27.60;89.90;;;;;;6036452;23;20033;-82
2022/07/19 11:01:55;;;;;;;1.77;1.65;;;27.60;88.60;;;;;;6072621;23;19932;-84
2022/07/19 11:04:43;;;;;;;11.02;2.40;;;27.60;91.30;;;;;;6064369;23;20034;-85
2022/07/19 11:07:23;;;;;;;1.73;1.63;;;27.70;89.50;;;;;;6022290;23;20030;-85
2022/07/19 11:10:02;;;;;;;5.38;1.85;;;27.80;90.60;;;;;;6069459;23;20034;-85
2022/07/19 11:12:33;;;;;;;2.30;1.90;;;27.90;89.40;;;;;;5995308;23;20371;-85
2022/07/19 11:15:06;;;;;;;2.20;2.00;;;27.90;91.10;;;;;;6014990;23;20030;-86
2022/07/19 11:18:07;;;;;;;5.60;2.63;;;27.90;90.60;;;;;;6040289;23;20034;-85
2022/07/19 11:20:44;;;;;;;2.47;2.20;;;28.00;91.70;;;;;;6048132;23;20038;-84
2022/07/19 11:23:21;;;;;;;1.95;1.75;;;28.10;85.60;;;;;;6068077;23;20034;-85
2022/07/19 11:26:04;;;;;;;12.20;2.78;;;28.20;86.10;;;;;;6039740;23;20767;-87
2022/07/19 11:28:32;;;;;;;48.28;5.13;;;28.20;89.30;;;;;;6060341;23;20038;-85
2022/07/19 11:31:32;;;;;;;21.55;4.65;;;28.40;87.00;;;;;;6039018;23;20027;-83
2022/07/19 11:34:14;;;;;;;8.80;2.55;;;28.30;83.30;;;;;;6058205;23;20023;-87
2022/07/19 11:36:57;;;;;;;1.60;1.50;;;28.30;82.20;;;;;;6015908;23;20027;-88
2022/07/19 11:39:25;;;;;;;31.85;3.60;;;28.20;88.20;;;;;;6035942;23;20031;-87
2022/07/19 11:41:53;;;;;;;10.05;2.25;;;28.20;88.10;;;;;;6038546;23;20449;-86
2022/07/19 11:44:21;;;;;;;9.00;2.33;;;28.30;90.30;;;;;;6037499;23;20037;-85
2022/07/19 11:46:59;;;;;;;2.88;2.50;;;28.40;88.90;;;;;;6068944;23;20473;-89
2022/07/19 11:49:39;;;;;;;12.15;2.60;;;28.50;87.40;;;;;;6034197;23;20339;-89
2022/07/19 11:52:35;;;;;;;9.63;2.15;;;28.50;86.40;;;;;;6038728;23;20343;-89
2022/07/19 11:55:46;;;;;;;6.05;3.05;;;28.40;86.00;;;;;;6013298;23;20027;-89
2022/07/19 11:58:40;;;;;;;10.05;3.75;;;28.40;88.90;;;;;;5989318;23;20075;-86
2022/07/19 12:01:10;;;;;;;14.30;2.35;;;28.50;87.20;;;;;;5996059;23;20673;-84
2022/07/19 12:03:37;;;;;;;15.45;2.83;;;28.60;88.60;;;;;;6007275;23;20031;-84
2022/07/19 12:06:21;;;;;;;4.00;2.65;;;28.50;87.90;;;;;;6008048;23;20443;-86
2022/07/19 12:08:49;;;;;;;3.90;2.28;;;28.60;90.10;;;;;;6016554;23;20031;-84
2022/07/19 12:11:27;;;;;;;3.28;2.40;;;28.60;86.80;;;;;;6008240;23;20035;-82
2022/07/19 12:13:59;;;;;;;1.95;1.85;;;28.70;85.70;;;;;;6018194;23;20027;-82
2022/07/19 12:16:30;;;;;;;3.03;2.83;;;28.70;86.00;;;;;;6008000;23;20043;-81
2022/07/19 12:18:58;;;;;;;5.38;2.28;;;28.80;85.50;;;;;;6036926;23;20038;-82
2022/07/19 12:21:43;;;;;;;2.58;2.33;;;28.90;85.80;;;;;;5991972;23;20403;-82
2022/07/19 12:24:12;;;;;;;2.55;2.35;;;28.80;87.50;;;;;;5983821;23;20023;-81
2022/07/19 12:27:16;;;;;;;11.10;3.45;;;28.80;85.90;;;;;;6040923;23;20019;-87
2022/07/19 12:30:31;;;;;;;3.05;2.85;;;28.80;85.20;;;;;;5970147;23;20022;-85
2022/07/19 12:33:25;;;;;;;4.90;2.80;;;28.70;84.20;;;;;;6038374;23;20073;-85
2022/07/19 12:36:05;;;;;;;5.35;3.17;;;28.70;85.00;;;;;;6065657;23;20034;-86
2022/07/19 12:40:09;;;;;;;5.07;3.10;;;28.80;86.80;;;;;;6069308;23;20030;-85
2022/07/19 12:43:03;;;;;;;3.97;3.28;;;28.90;83.50;;;;;;6010556;23;20038;-83
2022/07/19 12:45:34;;;;;;;;;;;28.90;87.90;;;;;;6034115;23;20019;-82
2022/07/19 12:48:02;;;;;;;;;;;28.90;85.10;;;;;;6055278;23;19929;-82
2022/07/19 12:50:32;;;;;;;4.90;2.90;;;28.90;85.40;;;;;;5984411;23;19922;-84
2022/07/19 12:53:03;;;;;;;3.35;3.05;;;28.80;84.00;;;;;;6031414;23;20023;-84
2022/07/19 12:55:32;;;;;;;2.65;2.33;;;28.90;86.30;;;;;;6035234;23;20038;-82
2022/07/19 12:58:05;;;;;;;5.53;3.67;;;28.90;85.50;;;;;;5984107;23;20030;-86
2022/07/19 13:00:41;;;;;;;4.85;2.75;;;28.90;85.60;;;;;;5983801;23;20027;-82
2022/07/19 13:03:10;;;;;;;3.28;2.63;;;28.90;84.10;;;;;;6030094;23;20027;-81
2022/07/19 13:05:40;;;;;;;3.75;2.80;;;29.10;82.60;;;;;;5984438;23;20188;-82
2022/07/19 13:08:08;;;;;;;7.43;2.97;;;29.20;85.40;;;;;;6029775;23;20027;-83
2022/07/19 13:10:36;;;;;;;2.67;2.47;;;29.10;83.70;;;;;;6033702;23;20498;-83
2022/07/19 13:13:05;;;;;;;11.93;3.60;;;29.10;84.20;;;;;;6040941;23;20023;-83
2022/07/19 13:15:33;;;;;;;4.30;3.10;;;29.10;81.30;;;;;;6035474;23;20644;-81
2022/07/19 13:18:02;;;;;;;3.58;3.17;;;29.10;84.90;;;;;;6046182;23;20018;-82
2022/07/19 13:20:30;;;;;;;3.78;2.90;;;29.10;83.60;;;;;;6060686;23;20038;-82
2022/07/19 13:22:58;;;;;;;4.82;3.78;;;29.10;83.20;;;;;;6067475;23;20027;-79
2022/07/19 13:25:27;;;;;;;8.95;3.63;;;29.00;83.10;;;;;;6046151;23;20347;-81
2022/07/19 13:28:17;;;;;;;2.95;2.58;;;28.90;81.30;;;;;;6061611;23;20019;-80
2022/07/19 13:30:49;;;;;;;3.45;3.15;;;29.00;82.10;;;;;;6066861;23;20725;-80
2022/07/19 13:33:17;;;;;;;6.95;3.10;;;29.10;83.80;;;;;;6071735;23;20443;-80
2022/07/19 13:35:45;;;;;;;3.63;2.63;;;29.20;82.40;;;;;;6063762;23;20485;-80
2022/07/19 13:38:13;;;;;;;4.22;2.92;;;29.20;82.20;;;;;;6043960;23;20014;-80
2022/07/19 13:40:41;;;;;;;3.30;3.00;;;29.20;83.20;;;;;;6070747;23;20074;-80
2022/07/19 13:43:09;;;;;;;3.83;3.03;;;29.20;82.50;;;;;;6035974;23;20080;-79
2022/07/19 13:45:37;;;;;;;3.13;2.80;;;29.20;82.10;;;;;;6036887;23;20030;-79
2022/07/19 13:48:05;;;;;;;13.85;3.58;;;29.20;80.60;;;;;;6035800;23;20027;-80
2022/07/19 13:50:33;;;;;;;3.67;2.70;;;29.20;82.60;;;;;;6067550;23;20030;-80
2022/07/19 13:53:01;;;;;;;4.63;2.97;;;29.20;83.00;;;;;;6070531;23;20479;-80
2022/07/19 13:55:31;;;;;;;5.88;2.60;;;29.20;81.60;;;;;;6064949;23;20027;-80
2022/07/19 13:57:59;;;;;;;4.78;2.97;;;29.30;81.40;;;;;;6071707;23;20015;-82
2022/07/19 14:00:27;;;;;;;4.20;3.00;;;29.30;81.60;;;;;;6062121;23;20030;-79
2022/07/19 14:02:54;;;;;;;4.57;3.45;;;29.40;81.50;;;;;;6069546;23;20049;-80
2022/07/19 14:05:22;;;;;;;3.53;3.17;;;29.50;82.30;;;;;;6071992;23;20015;-81
2022/07/19 14:07:50;;;;;;;4.43;3.33;;;29.50;78.30;;;;;;6065821;23;20027;-80
2022/07/19 14:10:19;;;;;;;7.85;3.28;;;29.50;79.80;;;;;;6064537;23;20026;-81
2022/07/19 14:12:49;;;;;;;7.40;3.58;;;29.40;79.50;;;;;;6072959;23;20034;-84
2022/07/19 14:15:45;;;;;;;4.22;3.85;;;29.40;80.40;;;;;;6067482;23;20363;-84
2022/07/19 14:18:34;;;;;;;58.63;9.85;;;29.50;81.70;;;;;;6072932;23;20022;-86
2022/07/19 14:21:11;;;;;;;3.28;2.67;;;29.60;77.60;;;;;;6038227;23;20029;-80
2022/07/19 14:23:41;;;;;;;7.07;3.33;;;29.50;78.40;;;;;;6064384;23;20030;-81
2022/07/19 14:26:10;;;;;;;6.60;3.92;;;29.50;80.20;;;;;;6046386;23;20613;-81
2022/07/19 14:28:41;;;;;;;5.03;2.78;;;29.60;79.70;;;;;;6072639;23;20015;-81
2022/07/19 14:31:27;;;;;;;5.88;3.15;;;29.60;79.70;;;;;;6013284;23;20042;-81
2022/07/19 14:33:56;;;;;;;7.25;2.85;;;29.60;76.90;;;;;;6038840;23;20455;-81
2022/07/19 14:36:43;;;;;;;3.78;2.78;;;29.60;79.70;;;;;;6013637;23;20031;-79
2022/07/19 14:39:12;;;;;;;43.47;4.88;;;29.60;79.60;;;;;;6037181;23;20030;-82
2022/07/19 14:41:40;;;;;;;6.35;2.72;;;29.60;77.00;;;;;;6071588;23;20451;-81
2022/07/19 14:44:09;;;;;;;5.03;3.95;;;29.50;77.20;;;;;;6014115;23;20728;-82
2022/07/19 14:46:37;;;;;;;3.75;2.47;;;29.50;78.70;;;;;;6045644;23;20019;-82